Terminal Aerodrome Forecast
Issued by NWS

Home | Current Version | Previous Version | Text Only | Print | Product List | Glossary On
Versions: 1 2 3 4 5 6 7 8 9 10 11 12
000
FTUS42 TJSJ 022349
TAFNCM
TAF
TNCM 022349Z 0300/0324 10012KT P6SM VCSH SCT020 SCT040
     FM031200 10015G20KT P6SM FEW020 FEW030
     FM032300 09012KT P6SM SCT018=

USA.gov is the U.S. government's official web portal to all federal, state and local government web resources and services.